sensor_id;sensor_type;location;lat;lon;timestamp;temperature;humidity
41557;DHT22;27720;51.992;5.890;2024-01-10T00:00:05;-0.80;76.50
41557;DHT22;27720;51.992;5.890;2024-01-10T00:02:31;-0.80;76.40
41557;DHT22;27720;51.992;5.890;2024-01-10T00:04:57;-0.80;76.50
41557;DHT22;27720;51.992;5.890;2024-01-10T00:07:22;-0.80;76.60
41557;DHT22;27720;51.992;5.890;2024-01-10T00:09:48;-0.80;76.60
41557;DHT22;27720;51.992;5.890;2024-01-10T00:12:14;-0.80;76.70
41557;DHT22;27720;51.992;5.890;2024-01-10T00:14:39;-0.80;76.80
41557;DHT22;27720;51.992;5.890;2024-01-10T00:17:05;-0.80;76.80
41557;DHT22;27720;51.992;5.890;2024-01-10T00:19:31;-0.80;76.80
41557;DHT22;27720;51.992;5.890;2024-01-10T00:21:56;-0.80;76.90
41557;DHT22;27720;51.992;5.890;2024-01-10T00:24:22;-0.90;76.90
41557;DHT22;27720;51.992;5.890;2024-01-10T00:26:51;-0.90;77.00
41557;DHT22;27720;51.992;5.890;2024-01-10T00:29:16;-0.90;77.00
41557;DHT22;27720;51.992;5.890;2024-01-10T00:31:42;-0.90;77.70
41557;DHT22;27720;51.992;5.890;2024-01-10T00:34:08;-0.90;77.10
41557;DHT22;27720;51.992;5.890;2024-01-10T00:36:33;-0.90;77.10
41557;DHT22;27720;51.992;5.890;2024-01-10T00:38:59;-0.90;77.20
41557;DHT22;27720;51.992;5.890;2024-01-10T00:41:25;-0.90;77.30
41557;DHT22;27720;51.992;5.890;2024-01-10T00:43:50;-1.00;77.20
41557;DHT22;27720;51.992;5.890;2024-01-10T00:46:16;-1.00;77.30
41557;DHT22;27720;51.992;5.890;2024-01-10T00:48:41;-1.00;77.40
41557;DHT22;27720;51.992;5.890;2024-01-10T00:51:07;-1.00;77.50
41557;DHT22;27720;51.992;5.890;2024-01-10T00:53:37;-1.00;77.50
41557;DHT22;27720;51.992;5.890;2024-01-10T00:56:06;-1.10;77.50
41557;DHT22;27720;51.992;5.890;2024-01-10T00:58:32;-1.10;77.60
41557;DHT22;27720;51.992;5.890;2024-01-10T01:00:58;-1.10;77.60
41557;DHT22;27720;51.992;5.890;2024-01-10T01:03:24;-1.10;77.70
41557;DHT22;27720;51.992;5.890;2024-01-10T01:05:49;-1.00;77.70
41557;DHT22;27720;51.992;5.890;2024-01-10T01:08:15;-1.00;77.80
41557;DHT22;27720;51.992;5.890;2024-01-10T01:10:41;-1.10;77.70
41557;DHT22;27720;51.992;5.890;2024-01-10T01:13:06;-1.10;77.70
41557;DHT22;27720;51.992;5.890;2024-01-10T01:15:32;-1.10;77.80
41557;DHT22;27720;51.992;5.890;2024-01-10T01:17:58;-1.10;77.90
41557;DHT22;27720;51.992;5.890;2024-01-10T01:20:23;-1.10;78.00
41557;DHT22;27720;51.992;5.890;2024-01-10T01:22:49;-1.20;78.10
41557;DHT22;27720;51.992;5.890;2024-01-10T01:25:15;-1.20;78.10
41557;DHT22;27720;51.992;5.890;2024-01-10T01:27:41;-1.20;78.20
41557;DHT22;27720;51.992;5.890;2024-01-10T01:30:07;-1.20;78.30
41557;DHT22;27720;51.992;5.890;2024-01-10T01:32:33;-1.20;78.30
41557;DHT22;27720;51.992;5.890;2024-01-10T01:34:58;-1.20;78.40
41557;DHT22;27720;51.992;5.890;2024-01-10T01:37:24;-1.20;78.40
41557;DHT22;27720;51.992;5.890;2024-01-10T01:39:50;-1.20;78.40
41557;DHT22;27720;51.992;5.890;2024-01-10T01:42:18;-1.20;78.40
41557;DHT22;27720;51.992;5.890;2024-01-10T01:44:44;-1.20;78.40
41557;DHT22;27720;51.992;5.890;2024-01-10T01:47:10;-1.30;78.40
41557;DHT22;27720;51.992;5.890;2024-01-10T01:49:36;-1.30;78.50
41557;DHT22;27720;51.992;5.890;2024-01-10T01:52:02;-1.30;78.60
41557;DHT22;27720;51.992;5.890;2024-01-10T01:54:28;-1.30;78.60
41557;DHT22;27720;51.992;5.890;2024-01-10T01:56:54;-1.30;78.70
41557;DHT22;27720;51.992;5.890;2024-01-10T01:59:20;-1.30;78.80
41557;DHT22;27720;51.992;5.890;2024-01-10T02:01:46;-1.40;78.80
41557;DHT22;27720;51.992;5.890;2024-01-10T02:04:11;-1.30;78.80
41557;DHT22;27720;51.992;5.890;2024-01-10T02:06:37;-1.40;78.80
41557;DHT22;27720;51.992;5.890;2024-01-10T02:09:04;-1.40;78.80
41557;DHT22;27720;51.992;5.890;2024-01-10T02:11:30;-1.30;78.90
41557;DHT22;27720;51.992;5.890;2024-01-10T02:13:57;-1.30;78.80
41557;DHT22;27720;51.992;5.890;2024-01-10T02:16:23;-1.30;78.90
41557;DHT22;27720;51.992;5.890;2024-01-10T09:55:29;-4.50;90.30
41557;DHT22;27720;51.992;5.890;2024-01-10T09:57:56;-4.20;90.90
41557;DHT22;27720;51.992;5.890;2024-01-10T10:00:22;-3.50;91.40
41557;DHT22;27720;51.992;5.890;2024-01-10T10:02:51;-3.00;91.40
41557;DHT22;27720;51.992;5.890;2024-01-10T10:05:17;-2.50;91.20
41557;DHT22;27720;51.992;5.890;2024-01-10T10:07:47;-2.10;91.00
41557;DHT22;27720;51.992;5.890;2024-01-10T10:10:14;-1.80;90.70
41557;DHT22;27720;51.992;5.890;2024-01-10T10:12:45;-1.50;90.60
41557;DHT22;27720;51.992;5.890;2024-01-10T10:15:15;-1.30;90.10
41557;DHT22;27720;51.992;5.890;2024-01-10T10:17:44;-1.10;90.00
41557;DHT22;27720;51.992;5.890;2024-01-10T10:20:26;-1.00;89.70
41557;DHT22;27720;51.992;5.890;2024-01-10T10:25:30;-0.80;89.00
41557;DHT22;27720;51.992;5.890;2024-01-10T10:28:01;-0.70;88.90
41557;DHT22;27720;51.992;5.890;2024-01-10T10:30:28;-0.60;88.90
41557;DHT22;27720;51.992;5.890;2024-01-10T10:32:56;-0.60;88.70
41557;DHT22;27720;51.992;5.890;2024-01-10T10:35:22;-0.50;88.70
41557;DHT22;27720;51.992;5.890;2024-01-10T10:37:52;-0.40;88.30
41557;DHT22;27720;51.992;5.890;2024-01-10T10:40:19;-0.40;88.10
41557;DHT22;27720;51.992;5.890;2024-01-10T10:42:46;-0.30;88.10
41557;DHT22;27720;51.992;5.890;2024-01-10T10:45:16;-0.20;87.90
41557;DHT22;27720;51.992;5.890;2024-01-10T10:47:44;-0.20;87.70
41557;DHT22;27720;51.992;5.890;2024-01-10T10:50:22;-0.10;87.40
41557;DHT22;27720;51.992;5.890;2024-01-10T10:52:49;-0.10;87.00
41557;DHT22;27720;51.992;5.890;2024-01-10T10:55:16;0.00;86.90
41557;DHT22;27720;51.992;5.890;2024-01-10T10:57:45;0.00;86.80
41557;DHT22;27720;51.992;5.890;2024-01-10T11:00:17;0.10;86.70
41557;DHT22;27720;51.992;5.890;2024-01-10T11:02:44;0.10;86.60
41557;DHT22;27720;51.992;5.890;2024-01-10T11:05:10;0.20;86.50
41557;DHT22;27720;51.992;5.890;2024-01-10T11:07:43;0.20;86.10
41557;DHT22;27720;51.992;5.890;2024-01-10T11:10:18;0.20;85.80
41557;DHT22;27720;51.992;5.890;2024-01-10T11:13:13;0.30;85.80
41557;DHT22;27720;51.992;5.890;2024-01-10T11:16:11;0.30;85.70
41557;DHT22;27720;51.992;5.890;2024-01-10T11:19:23;0.30;85.60
41557;DHT22;27720;51.992;5.890;2024-01-10T11:24:28;0.40;85.20
41557;DHT22;27720;51.992;5.890;2024-01-10T11:29:33;0.40;85.10
41557;DHT22;27720;51.992;5.890;2024-01-10T11:32:01;0.50;85.00
41557;DHT22;27720;51.992;5.890;2024-01-10T11:34:27;0.50;84.10
41557;DHT22;27720;51.992;5.890;2024-01-10T11:37:13;0.50;84.00
41557;DHT22;27720;51.992;5.890;2024-01-10T11:39:42;0.60;83.90
41557;DHT22;27720;51.992;5.890;2024-01-10T11:42:11;0.70;84.00
41557;DHT22;27720;51.992;5.890;2024-01-10T11:44:50;0.70;83.90
41557;DHT22;27720;51.992;5.890;2024-01-10T11:47:17;0.80;83.90
41557;DHT22;27720;51.992;5.890;2024-01-10T11:49:57;0.80;83.50
41557;DHT22;27720;51.992;5.890;2024-01-10T11:52:23;0.90;83.30
41557;DHT22;27720;51.992;5.890;2024-01-10T11:54:56;0.90;83.30
41557;DHT22;27720;51.992;5.890;2024-01-10T11:57:25;0.90;83.30
41557;DHT22;27720;51.992;5.890;2024-01-10T11:59:54;1.00;83.20
41557;DHT22;27720;51.992;5.890;2024-01-10T12:02:21;1.00;82.50
41557;DHT22;27720;51.992;5.890;2024-01-10T12:04:48;1.00;82.20
41557;DHT22;27720;51.992;5.890;2024-01-10T12:07:14;1.10;81.90
41557;DHT22;27720;51.992;5.890;2024-01-10T12:09:41;1.10;81.50
41557;DHT22;27720;51.992;5.890;2024-01-10T12:12:07;1.10;81.40
41557;DHT22;27720;51.992;5.890;2024-01-10T12:14:34;1.20;81.50
41557;DHT22;27720;51.992;5.890;2024-01-10T12:17:00;1.20;81.50
41557;DHT22;27720;51.992;5.890;2024-01-10T12:19:27;1.20;81.50
41557;DHT22;27720;51.992;5.890;2024-01-10T12:21:52;1.30;81.60
41557;DHT22;27720;51.992;5.890;2024-01-10T12:24:19;1.30;81.50
41557;DHT22;27720;51.992;5.890;2024-01-10T12:26:46;1.30;81.30
41557;DHT22;27720;51.992;5.890;2024-01-10T12:29:12;1.30;81.30
41557;DHT22;27720;51.992;5.890;2024-01-10T12:31:40;1.30;81.50
41557;DHT22;27720;51.992;5.890;2024-01-10T12:34:07;1.40;81.30
41557;DHT22;27720;51.992;5.890;2024-01-10T12:36:36;1.50;81.30
41557;DHT22;27720;51.992;5.890;2024-01-10T12:39:02;1.50;81.10
41557;DHT22;27720;51.992;5.890;2024-01-10T12:41:28;1.50;80.90
41557;DHT22;27720;51.992;5.890;2024-01-10T12:43:55;1.50;81.00
41557;DHT22;27720;51.992;5.890;2024-01-10T12:46:22;1.50;80.90
41557;DHT22;27720;51.992;5.890;2024-01-10T12:49:02;1.60;80.90
41557;DHT22;27720;51.992;5.890;2024-01-10T12:51:29;1.60;80.90
41557;DHT22;27720;51.992;5.890;2024-01-10T12:53:55;1.60;80.80
41557;DHT22;27720;51.992;5.890;2024-01-10T12:56:22;1.60;80.90
41557;DHT22;27720;51.992;5.890;2024-01-10T12:58:47;1.70;80.40
41557;DHT22;27720;51.992;5.890;2024-01-10T13:01:13;1.70;80.80
41557;DHT22;27720;51.992;5.890;2024-01-10T13:03:39;1.60;79.60
41557;DHT22;27720;51.992;5.890;2024-01-10T13:06:05;1.70;79.50
41557;DHT22;27720;51.992;5.890;2024-01-10T13:08:31;1.70;79.40
41557;DHT22;27720;51.992;5.890;2024-01-10T13:11:00;1.70;79.50
41557;DHT22;27720;51.992;5.890;2024-01-10T13:13:26;1.70;79.30
41557;DHT22;27720;51.992;5.890;2024-01-10T13:15:52;1.80;79.50
41557;DHT22;27720;51.992;5.890;2024-01-10T13:18:18;1.80;79.40
41557;DHT22;27720;51.992;5.890;2024-01-10T13:20:44;1.80;79.20
41557;DHT22;27720;51.992;5.890;2024-01-10T13:23:10;1.80;79.20
41557;DHT22;27720;51.992;5.890;2024-01-10T13:25:36;1.80;79.40
41557;DHT22;27720;51.992;5.890;2024-01-10T13:28:05;1.80;79.20
41557;DHT22;27720;51.992;5.890;2024-01-10T13:30:31;1.90;79.30
41557;DHT22;27720;51.992;5.890;2024-01-10T13:32:57;1.90;79.10
41557;DHT22;27720;51.992;5.890;2024-01-10T13:35:26;1.90;79.20
41557;DHT22;27720;51.992;5.890;2024-01-10T13:37:52;1.90;79.20
41557;DHT22;27720;51.992;5.890;2024-01-10T13:40:18;1.90;79.20
41557;DHT22;27720;51.992;5.890;2024-01-10T13:42:49;1.90;79.20
41557;DHT22;27720;51.992;5.890;2024-01-10T13:45:16;1.90;79.20
41557;DHT22;27720;51.992;5.890;2024-01-10T13:47:42;1.90;79.10
41557;DHT22;27720;51.992;5.890;2024-01-10T13:50:09;1.90;79.20
41557;DHT22;27720;51.992;5.890;2024-01-10T13:52:35;1.90;79.10
41557;DHT22;27720;51.992;5.890;2024-01-10T13:55:02;1.90;79.10
41557;DHT22;27720;51.992;5.890;2024-01-10T13:57:30;2.00;79.10
41557;DHT22;27720;51.992;5.890;2024-01-10T13:59:58;2.00;78.90
41557;DHT22;27720;51.992;5.890;2024-01-10T14:02:24;2.00;78.60
41557;DHT22;27720;51.992;5.890;2024-01-10T14:04:51;2.00;78.70
41557;DHT22;27720;51.992;5.890;2024-01-10T14:07:17;2.00;78.80
41557;DHT22;27720;51.992;5.890;2024-01-10T14:09:43;2.00;78.70
41557;DHT22;27720;51.992;5.890;2024-01-10T14:12:11;2.00;78.50
41557;DHT22;27720;51.992;5.890;2024-01-10T14:14:38;2.00;78.50
41557;DHT22;27720;51.992;5.890;2024-01-10T14:17:04;2.00;78.60
41557;DHT22;27720;51.992;5.890;2024-01-10T14:19:30;2.00;78.60
41557;DHT22;27720;51.992;5.890;2024-01-10T14:21:55;2.00;78.60
41557;DHT22;27720;51.992;5.890;2024-01-10T14:24:21;2.00;78.70
41557;DHT22;27720;51.992;5.890;2024-01-10T14:26:47;2.00;78.50
41557;DHT22;27720;51.992;5.890;2024-01-10T14:29:13;2.00;78.50
41557;DHT22;27720;51.992;5.890;2024-01-10T14:31:38;2.00;78.60
41557;DHT22;27720;51.992;5.890;2024-01-10T14:34:05;2.00;79.10
41557;DHT22;27720;51.992;5.890;2024-01-10T14:36:31;2.00;78.50
41557;DHT22;27720;51.992;5.890;2024-01-10T14:38:57;2.00;78.60
41557;DHT22;27720;51.992;5.890;2024-01-10T14:41:23;2.00;78.60
41557;DHT22;27720;51.992;5.890;2024-01-10T14:43:49;2.00;78.60
41557;DHT22;27720;51.992;5.890;2024-01-10T14:46:15;2.00;78.60
41557;DHT22;27720;51.992;5.890;2024-01-10T14:48:41;2.10;78.60
41557;DHT22;27720;51.992;5.890;2024-01-10T14:51:07;2.00;78.60
41557;DHT22;27720;51.992;5.890;2024-01-10T14:53:33;2.00;78.40
41557;DHT22;27720;51.992;5.890;2024-01-10T14:56:01;2.00;78.60
41557;DHT22;27720;51.992;5.890;2024-01-10T14:58:27;2.00;78.70
41557;DHT22;27720;51.992;5.890;2024-01-10T15:00:52;2.00;78.70
41557;DHT22;27720;51.992;5.890;2024-01-10T15:03:18;1.90;78.60
41557;DHT22;27720;51.992;5.890;2024-01-10T15:05:44;1.90;78.60
41557;DHT22;27720;51.992;5.890;2024-01-10T15:08:10;1.90;78.50
41557;DHT22;27720;51.992;5.890;2024-01-10T15:10:37;1.90;78.60
41557;DHT22;27720;51.992;5.890;2024-01-10T15:13:11;2.00;78.60
41557;DHT22;27720;51.992;5.890;2024-01-10T15:15:40;2.00;78.60
41557;DHT22;27720;51.992;5.890;2024-01-10T15:18:08;2.00;78.60
41557;DHT22;27720;51.992;5.890;2024-01-10T15:20:34;1.90;78.50
41557;DHT22;27720;51.992;5.890;2024-01-10T15:22:59;1.90;78.60
41557;DHT22;27720;51.992;5.890;2024-01-10T15:25:25;1.90;78.60
41557;DHT22;27720;51.992;5.890;2024-01-10T15:27:51;1.90;78.60
41557;DHT22;27720;51.992;5.890;2024-01-10T15:30:17;1.90;78.60
41557;DHT22;27720;51.992;5.890;2024-01-10T15:32:48;1.80;78.60
41557;DHT22;27720;51.992;5.890;2024-01-10T15:35:15;1.90;78.80
41557;DHT22;27720;51.992;5.890;2024-01-10T15:37:41;1.90;78.80
41557;DHT22;27720;51.992;5.890;2024-01-10T15:40:10;1.80;78.60
41557;DHT22;27720;51.992;5.890;2024-01-10T15:42:37;1.80;78.80
41557;DHT22;27720;51.992;5.890;2024-01-10T15:45:03;1.80;79.50
41557;DHT22;27720;51.992;5.890;2024-01-10T15:47:31;1.70;78.80
41557;DHT22;27720;51.992;5.890;2024-01-10T15:49:56;1.70;78.90
41557;DHT22;27720;51.992;5.890;2024-01-10T15:52:22;1.80;79.00
41557;DHT22;27720;51.992;5.890;2024-01-10T15:54:52;1.70;78.90
41557;DHT22;27720;51.992;5.890;2024-01-10T15:57:22;1.70;78.90
41557;DHT22;27720;51.992;5.890;2024-01-10T15:59:48;1.70;79.00
41557;DHT22;27720;51.992;5.890;2024-01-10T16:02:14;1.70;79.00
41557;DHT22;27720;51.992;5.890;2024-01-10T16:04:40;1.70;79.00
41557;DHT22;27720;51.992;5.890;2024-01-10T16:07:05;1.70;79.00
41557;DHT22;27720;51.992;5.890;2024-01-10T16:09:31;1.60;79.00
41557;DHT22;27720;51.992;5.890;2024-01-10T16:11:57;1.60;79.00
41557;DHT22;27720;51.992;5.890;2024-01-10T16:14:22;1.60;79.10
41557;DHT22;27720;51.992;5.890;2024-01-10T16:16:49;1.60;79.10
41557;DHT22;27720;51.992;5.890;2024-01-10T16:19:15;1.60;79.10
41557;DHT22;27720;51.992;5.890;2024-01-10T16:21:41;1.50;79.10
41557;DHT22;27720;51.992;5.890;2024-01-10T16:24:07;1.60;79.20
41557;DHT22;27720;51.992;5.890;2024-01-10T16:26:33;1.60;79.20
41557;DHT22;27720;51.992;5.890;2024-01-10T16:28:59;1.50;79.10
41557;DHT22;27720;51.992;5.890;2024-01-10T16:31:25;1.60;79.20
41557;DHT22;27720;51.992;5.890;2024-01-10T16:33:51;1.50;79.20
41557;DHT22;27720;51.992;5.890;2024-01-10T16:36:17;1.50;79.10
41557;DHT22;27720;51.992;5.890;2024-01-10T16:38:43;1.50;79.20
41557;DHT22;27720;51.992;5.890;2024-01-10T16:41:08;1.50;79.30
41557;DHT22;27720;51.992;5.890;2024-01-10T16:43:36;1.40;79.30
41557;DHT22;27720;51.992;5.890;2024-01-10T16:46:02;1.40;79.10
41557;DHT22;27720;51.992;5.890;2024-01-10T16:48:28;1.40;79.30
41557;DHT22;27720;51.992;5.890;2024-01-10T16:50:54;1.40;79.30
41557;DHT22;27720;51.992;5.890;2024-01-10T16:53:27;1.40;79.40
41557;DHT22;27720;51.992;5.890;2024-01-10T16:55:53;1.40;79.40
41557;DHT22;27720;51.992;5.890;2024-01-10T16:58:19;1.40;79.40
41557;DHT22;27720;51.992;5.890;2024-01-10T17:00:45;1.40;79.40
41557;DHT22;27720;51.992;5.890;2024-01-10T17:03:14;1.30;79.30
41557;DHT22;27720;51.992;5.890;2024-01-10T17:05:41;1.40;79.40
41557;DHT22;27720;51.992;5.890;2024-01-10T17:08:07;1.30;79.40
41557;DHT22;27720;51.992;5.890;2024-01-10T17:10:32;1.30;79.40
41557;DHT22;27720;51.992;5.890;2024-01-10T17:12:58;1.30;79.40
41557;DHT22;27720;51.992;5.890;2024-01-10T17:15:24;1.30;79.40
41557;DHT22;27720;51.992;5.890;2024-01-10T17:17:50;1.30;79.40
41557;DHT22;27720;51.992;5.890;2024-01-10T17:20:15;1.30;79.40
41557;DHT22;27720;51.992;5.890;2024-01-10T17:22:42;1.30;79.40
41557;DHT22;27720;51.992;5.890;2024-01-10T17:25:08;1.30;79.40
41557;DHT22;27720;51.992;5.890;2024-01-10T17:27:36;1.30;79.50
41557;DHT22;27720;51.992;5.890;2024-01-10T17:30:02;1.30;79.40
41557;DHT22;27720;51.992;5.890;2024-01-10T17:32:28;1.30;79.40
41557;DHT22;27720;51.992;5.890;2024-01-10T17:34:54;1.20;79.40
41557;DHT22;27720;51.992;5.890;2024-01-10T17:37:20;1.20;79.40
41557;DHT22;27720;51.992;5.890;2024-01-10T17:39:46;1.20;79.40
41557;DHT22;27720;51.992;5.890;2024-01-10T17:42:12;1.20;79.40
41557;DHT22;27720;51.992;5.890;2024-01-10T17:44:38;1.20;79.40
41557;DHT22;27720;51.992;5.890;2024-01-10T17:47:06;1.20;79.50
41557;DHT22;27720;51.992;5.890;2024-01-10T17:49:37;1.20;79.50
41557;DHT22;27720;51.992;5.890;2024-01-10T17:52:03;1.20;79.50
41557;DHT22;27720;51.992;5.890;2024-01-10T17:54:29;1.20;79.50
41557;DHT22;27720;51.992;5.890;2024-01-10T17:56:55;1.20;79.50
41557;DHT22;27720;51.992;5.890;2024-01-10T17:59:21;1.20;79.50
41557;DHT22;27720;51.992;5.890;2024-01-10T18:01:47;1.20;79.50
41557;DHT22;27720;51.992;5.890;2024-01-10T18:04:13;1.20;79.60
41557;DHT22;27720;51.992;5.890;2024-01-10T18:06:40;1.10;79.60
41557;DHT22;27720;51.992;5.890;2024-01-10T18:09:05;1.10;80.20
41557;DHT22;27720;51.992;5.890;2024-01-10T18:11:32;1.10;79.60
41557;DHT22;27720;51.992;5.890;2024-01-10T18:13:58;1.10;79.60
41557;DHT22;27720;51.992;5.890;2024-01-10T18:16:24;1.10;79.70
41557;DHT22;27720;51.992;5.890;2024-01-10T18:18:49;1.00;79.70
41557;DHT22;27720;51.992;5.890;2024-01-10T18:21:17;1.00;79.70
41557;DHT22;27720;51.992;5.890;2024-01-10T18:23:43;1.00;79.80
41557;DHT22;27720;51.992;5.890;2024-01-10T18:26:08;1.00;79.80
41557;DHT22;27720;51.992;5.890;2024-01-10T18:28:34;1.00;79.80
41557;DHT22;27720;51.992;5.890;2024-01-10T18:31:00;0.90;79.80
41557;DHT22;27720;51.992;5.890;2024-01-10T18:33:26;0.90;79.80
41557;DHT22;27720;51.992;5.890;2024-01-10T18:35:52;0.90;79.80
41557;DHT22;27720;51.992;5.890;2024-01-10T18:38:17;0.90;79.90
41557;DHT22;27720;51.992;5.890;2024-01-10T18:40:44;0.90;80.00
41557;DHT22;27720;51.992;5.890;2024-01-10T18:43:11;0.90;80.00
41557;DHT22;27720;51.992;5.890;2024-01-10T18:45:37;0.80;80.00
41557;DHT22;27720;51.992;5.890;2024-01-10T18:48:03;0.80;80.10
41557;DHT22;27720;51.992;5.890;2024-01-10T18:50:29;0.80;80.00
41557;DHT22;27720;51.992;5.890;2024-01-10T18:52:55;0.80;80.10
41557;DHT22;27720;51.992;5.890;2024-01-10T18:55:21;0.80;80.10
41557;DHT22;27720;51.992;5.890;2024-01-10T18:57:48;0.70;80.10
41557;DHT22;27720;51.992;5.890;2024-01-10T19:00:14;0.80;80.10
41557;DHT22;27720;51.992;5.890;2024-01-10T19:02:42;0.80;80.10
41557;DHT22;27720;51.992;5.890;2024-01-10T19:05:08;0.80;80.10
41557;DHT22;27720;51.992;5.890;2024-01-10T19:07:34;0.80;80.00
41557;DHT22;27720;51.992;5.890;2024-01-10T19:10:00;0.80;80.10
41557;DHT22;27720;51.992;5.890;2024-01-10T19:12:26;0.70;80.10
41557;DHT22;27720;51.992;5.890;2024-01-10T19:14:53;0.80;80.10
41557;DHT22;27720;51.992;5.890;2024-01-10T19:17:19;0.80;80.10
41557;DHT22;27720;51.992;5.890;2024-01-10T19:19:45;0.70;80.10
41557;DHT22;27720;51.992;5.890;2024-01-10T19:22:11;0.70;80.00
41557;DHT22;27720;51.992;5.890;2024-01-10T19:24:37;0.70;80.10
41557;DHT22;27720;51.992;5.890;2024-01-10T19:27:03;0.70;80.10
41557;DHT22;27720;51.992;5.890;2024-01-10T19:29:29;0.70;80.10
41557;DHT22;27720;51.992;5.890;2024-01-10T19:31:55;0.70;80.10
41557;DHT22;27720;51.992;5.890;2024-01-10T19:34:21;0.70;80.10
41557;DHT22;27720;51.992;5.890;2024-01-10T19:36:49;0.70;80.10
41557;DHT22;27720;51.992;5.890;2024-01-10T19:39:15;0.70;80.10
41557;DHT22;27720;51.992;5.890;2024-01-10T19:41:42;0.70;80.10
41557;DHT22;27720;51.992;5.890;2024-01-10T19:44:07;0.70;80.00
41557;DHT22;27720;51.992;5.890;2024-01-10T19:46:33;0.70;80.10
41557;DHT22;27720;51.992;5.890;2024-01-10T19:48:59;0.70;80.10
41557;DHT22;27720;51.992;5.890;2024-01-10T19:51:24;0.70;80.10
41557;DHT22;27720;51.992;5.890;2024-01-10T19:53:50;0.70;80.20
41557;DHT22;27720;51.992;5.890;2024-01-10T19:56:16;0.60;80.20
41557;DHT22;27720;51.992;5.890;2024-01-10T19:58:43;0.60;80.20
41557;DHT22;27720;51.992;5.890;2024-01-10T20:01:09;0.60;80.20
41557;DHT22;27720;51.992;5.890;2024-01-10T20:03:35;0.60;80.30
41557;DHT22;27720;51.992;5.890;2024-01-10T20:06:01;0.60;80.40
41557;DHT22;27720;51.992;5.890;2024-01-10T20:08:27;0.60;80.50
41557;DHT22;27720;51.992;5.890;2024-01-10T20:10:53;0.50;80.30
41557;DHT22;27720;51.992;5.890;2024-01-10T20:13:18;0.50;80.40
41557;DHT22;27720;51.992;5.890;2024-01-10T20:15:46;0.50;80.50
41557;DHT22;27720;51.992;5.890;2024-01-10T20:18:13;0.50;80.50
41557;DHT22;27720;51.992;5.890;2024-01-10T20:20:38;0.50;80.50
41557;DHT22;27720;51.992;5.890;2024-01-10T20:23:04;0.50;80.50
41557;DHT22;27720;51.992;5.890;2024-01-10T20:25:30;0.50;80.50
41557;DHT22;27720;51.992;5.890;2024-01-10T20:27:55;0.50;80.40
41557;DHT22;27720;51.992;5.890;2024-01-10T20:30:21;0.50;80.40
41557;DHT22;27720;51.992;5.890;2024-01-10T20:32:47;0.50;80.50
41557;DHT22;27720;51.992;5.890;2024-01-10T20:35:13;0.50;80.50
41557;DHT22;27720;51.992;5.890;2024-01-10T20:37:39;0.50;80.50
41557;DHT22;27720;51.992;5.890;2024-01-10T20:40:06;0.50;80.60
41557;DHT22;27720;51.992;5.890;2024-01-10T20:42:32;0.40;80.60
41557;DHT22;27720;51.992;5.890;2024-01-10T20:44:59;0.40;80.70
41557;DHT22;27720;51.992;5.890;2024-01-10T20:47:25;0.40;80.70
41557;DHT22;27720;51.992;5.890;2024-01-10T20:49:55;0.40;80.70
41557;DHT22;27720;51.992;5.890;2024-01-10T20:52:22;0.40;80.70
41557;DHT22;27720;51.992;5.890;2024-01-10T20:54:51;0.30;80.70
41557;DHT22;27720;51.992;5.890;2024-01-10T20:57:20;0.30;80.80
41557;DHT22;27720;51.992;5.890;2024-01-10T20:59:47;0.30;80.80
41557;DHT22;27720;51.992;5.890;2024-01-10T21:02:13;0.30;80.90
41557;DHT22;27720;51.992;5.890;2024-01-10T21:04:39;0.30;80.90
41557;DHT22;27720;51.992;5.890;2024-01-10T21:07:05;0.30;80.90
41557;DHT22;27720;51.992;5.890;2024-01-10T21:09:33;0.20;80.90
41557;DHT22;27720;51.992;5.890;2024-01-10T21:11:58;0.20;80.90
41557;DHT22;27720;51.992;5.890;2024-01-10T21:14:24;0.20;81.00
41557;DHT22;27720;51.992;5.890;2024-01-10T21:16:50;0.10;81.00
41557;DHT22;27720;51.992;5.890;2024-01-10T21:19:17;0.10;81.10
41557;DHT22;27720;51.992;5.890;2024-01-10T21:21:47;0.10;81.10
41557;DHT22;27720;51.992;5.890;2024-01-10T21:24:16;0.10;81.10
41557;DHT22;27720;51.992;5.890;2024-01-10T21:26:43;0.10;81.10
41557;DHT22;27720;51.992;5.890;2024-01-10T21:29:09;0.10;81.10
41557;DHT22;27720;51.992;5.890;2024-01-10T21:31:35;0.00;81.10
41557;DHT22;27720;51.992;5.890;2024-01-10T21:34:00;0.00;81.10
41557;DHT22;27720;51.992;5.890;2024-01-10T21:36:26;0.00;81.10
41557;DHT22;27720;51.992;5.890;2024-01-10T21:38:52;0.00;81.10
41557;DHT22;27720;51.992;5.890;2024-01-10T21:41:18;0.00;81.10
41557;DHT22;27720;51.992;5.890;2024-01-10T21:43:46;0.00;81.10
41557;DHT22;27720;51.992;5.890;2024-01-10T21:46:11;0.00;81.10
41557;DHT22;27720;51.992;5.890;2024-01-10T21:48:39;0.00;81.20
41557;DHT22;27720;51.992;5.890;2024-01-10T21:51:05;0.00;81.10
41557;DHT22;27720;51.992;5.890;2024-01-10T21:53:30;-0.10;81.10
41557;DHT22;27720;51.992;5.890;2024-01-10T21:55:59;-0.10;81.20
41557;DHT22;27720;51.992;5.890;2024-01-10T21:58:28;-0.10;81.30
41557;DHT22;27720;51.992;5.890;2024-01-10T22:00:57;-0.10;81.40
41557;DHT22;27720;51.992;5.890;2024-01-10T22:03:23;-0.20;81.40
41557;DHT22;27720;51.992;5.890;2024-01-10T22:05:50;-0.20;81.30
41557;DHT22;27720;51.992;5.890;2024-01-10T22:08:16;-0.20;81.40
41557;DHT22;27720;51.992;5.890;2024-01-10T22:10:42;-0.20;81.30
41557;DHT22;27720;51.992;5.890;2024-01-10T22:13:08;-0.20;81.40
41557;DHT22;27720;51.992;5.890;2024-01-10T22:15:34;-0.20;81.50
41557;DHT22;27720;51.992;5.890;2024-01-10T22:18:00;-0.20;81.40
41557;DHT22;27720;51.992;5.890;2024-01-10T22:20:26;-0.20;81.30
41557;DHT22;27720;51.992;5.890;2024-01-10T22:22:51;-0.20;81.30
41557;DHT22;27720;51.992;5.890;2024-01-10T22:25:17;-0.20;81.30
41557;DHT22;27720;51.992;5.890;2024-01-10T22:27:46;-0.20;81.30
41557;DHT22;27720;51.992;5.890;2024-01-10T22:30:12;-0.10;81.40
41557;DHT22;27720;51.992;5.890;2024-01-10T22:32:38;-0.20;81.30
41557;DHT22;27720;51.992;5.890;2024-01-10T22:35:04;-0.20;81.30
41557;DHT22;27720;51.992;5.890;2024-01-10T22:37:30;-0.20;81.30
41557;DHT22;27720;51.992;5.890;2024-01-10T22:39:56;-0.20;81.40
41557;DHT22;27720;51.992;5.890;2024-01-10T22:42:21;-0.20;81.40
41557;DHT22;27720;51.992;5.890;2024-01-10T22:44:47;-0.20;81.40
41557;DHT22;27720;51.992;5.890;2024-01-10T22:47:13;-0.20;81.40
41557;DHT22;27720;51.992;5.890;2024-01-10T22:49:38;-0.20;81.50
41557;DHT22;27720;51.992;5.890;2024-01-10T22:52:04;-0.20;81.50
41557;DHT22;27720;51.992;5.890;2024-01-10T22:54:30;-0.20;81.50
41557;DHT22;27720;51.992;5.890;2024-01-10T22:56:56;-0.20;81.50
41557;DHT22;27720;51.992;5.890;2024-01-10T22:59:22;-0.20;81.50
41557;DHT22;27720;51.992;5.890;2024-01-10T23:01:47;-0.20;81.50
41557;DHT22;27720;51.992;5.890;2024-01-10T23:04:13;-0.20;81.50
41557;DHT22;27720;51.992;5.890;2024-01-10T23:06:38;-0.20;81.60
41557;DHT22;27720;51.992;5.890;2024-01-10T23:09:04;-0.30;81.60
41557;DHT22;27720;51.992;5.890;2024-01-10T23:11:30;-0.30;81.70
41557;DHT22;27720;51.992;5.890;2024-01-10T23:13:56;-0.30;81.70
41557;DHT22;27720;51.992;5.890;2024-01-10T23:16:23;-0.30;81.80
41557;DHT22;27720;51.992;5.890;2024-01-10T23:18:49;-0.30;81.80
41557;DHT22;27720;51.992;5.890;2024-01-10T23:21:15;-0.30;81.80
41557;DHT22;27720;51.992;5.890;2024-01-10T23:23:41;-0.30;81.70